createdAt,value
2018-04-01T00:00:42.054Z,72.54
2018-04-01T00:03:09.135Z,71.84
2018-04-01T00:05:36.181Z,72.29
2018-04-01T00:08:03.241Z,71.37
2018-04-01T00:10:30.375Z,71.53
2018-04-01T00:12:57.429Z,71.44
2018-04-01T00:15:24.576Z,70.91
2018-04-01T00:17:51.624Z,70.86
2018-04-01T00:20:18.667Z,69.83
2018-04-01T00:22:45.724Z,71.83
2018-04-01T00:25:12.780Z,72.14
2018-04-01T00:27:39.862Z,71.73
2018-04-01T00:30:06.922Z,70.18
2018-04-01T00:32:37.978Z,71.51
2018-04-01T00:35:05.075Z,71.39
2018-04-01T00:37:32.122Z,72.66
2018-04-01T00:39:59.206Z,72.07
2018-04-01T00:42:26.327Z,71.83
2018-04-01T00:44:53.374Z,72.34
2018-04-01T00:47:20.422Z,71.72
2018-04-01T00:49:47.511Z,71.88
2018-04-01T00:52:14.558Z,73.24
2018-04-01T00:54:41.603Z,73.26
2018-04-01T00:57:08.655Z,73.72
2018-04-01T00:59:35.703Z,73.46
2018-04-01T01:02:02.800Z,72.60
2018-04-01T01:04:29.854Z,72.79
2018-04-01T01:06:56.934Z,73.16
2018-04-01T01:09:24.026Z,71.82
2018-04-01T01:11:51.074Z,72.66
2018-04-01T01:14:18.147Z,73.08
2018-04-01T01:16:45.230Z,72.19
2018-04-01T01:19:12.275Z,73.73
2018-04-01T01:21:39.326Z,73.88
2018-04-01T01:24:06.423Z,73.44
2018-04-01T01:26:33.462Z,72.61
2018-04-01T01:29:00.542Z,73.66
2018-04-01T01:31:27.654Z,73.82
2018-04-01T01:33:54.698Z,73.76
2018-04-01T01:36:21.746Z,72.57
2018-04-01T01:38:48.827Z,72.52
2018-04-01T01:41:15.894Z,73.91
2018-04-01T01:43:42.970Z,72.78
2018-04-01T01:46:10.023Z,72.86
2018-04-01T01:48:37.068Z,73.02
2018-04-01T01:51:04.175Z,72.96
2018-04-01T01:53:31.218Z,73.99
2018-04-01T01:55:58.367Z,72.33
2018-04-01T01:58:25.490Z,72.64
2018-04-01T02:00:52.586Z,74.20
2018-04-01T02:03:19.654Z,74.96
2018-04-01T02:05:46.738Z,74.43
2018-04-01T02:08:13.794Z,73.67
2018-04-01T02:10:40.838Z,74.59
2018-04-01T02:13:07.978Z,73.96
2018-04-01T02:15:35.027Z,73.91
2018-04-01T02:18:02.121Z,74.82
2018-04-01T02:20:29.231Z,74.55
2018-04-01T02:22:56.324Z,74.96
2018-04-01T02:25:23.394Z,75.14
2018-04-01T02:27:50.482Z,75.03
2018-04-01T02:30:17.527Z,75.33
2018-04-01T02:32:46.486Z,75.97
2018-04-01T02:35:13.608Z,75.86
2018-04-01T02:37:40.698Z,75.63
2018-04-01T02:40:07.760Z,75.95
2018-04-01T02:42:34.890Z,75.18
2018-04-01T02:45:01.968Z,74.89
2018-04-01T02:47:29.059Z,74.59
2018-04-01T02:49:56.210Z,74.52
2018-04-01T02:52:23.271Z,73.08
2018-04-01T02:54:50.356Z,74.10
2018-04-01T02:57:17.428Z,74.94
2018-04-01T02:59:44.477Z,75.23
2018-04-01T03:02:11.572Z,74.09
2018-04-01T03:04:38.709Z,74.64
2018-04-01T03:07:05.707Z,75.09
2018-04-01T03:09:32.844Z,74.88
2018-04-01T03:11:59.903Z,75.47
2018-04-01T03:14:26.954Z,75.77
2018-04-01T03:16:54.032Z,76.16
2018-04-01T03:19:21.080Z,75.53
2018-04-01T03:21:48.131Z,76.50
2018-04-01T03:24:15.295Z,76.63
2018-04-01T03:26:42.351Z,77.50
2018-04-01T03:29:09.398Z,76.71
2018-04-01T03:31:36.464Z,76.06
2018-04-01T03:34:03.572Z,76.96
2018-04-01T03:36:30.727Z,76.93
2018-04-01T03:38:57.770Z,77.06
2018-04-01T03:41:24.826Z,77.30
2018-04-01T03:43:52.554Z,76.60
2018-04-01T03:46:19.603Z,78.14
2018-04-01T03:48:46.660Z,77.50
2018-04-01T03:51:13.787Z,76.82
2018-04-01T03:53:40.851Z,76.64
2018-04-01T03:56:07.901Z,76.25
2018-04-01T03:58:34.958Z,77.24
2018-04-01T04:01:02.011Z,75.74
2018-04-01T04:03:29.103Z,76.45
2018-04-01T04:05:56.255Z,77.44
2018-04-01T04:08:23.327Z,77.34
2018-04-01T04:10:50.386Z,75.77
2018-04-01T04:13:17.486Z,76.79
2018-04-01T04:15:44.539Z,76.81
2018-04-01T04:18:11.591Z,76.26
2018-04-01T04:20:38.750Z,77.38
2018-04-01T04:23:05.810Z,76.51
2018-04-01T04:25:32.862Z,75.43
2018-04-01T04:27:59.955Z,75.90
2018-04-01T04:30:27.057Z,77.02
2018-04-01T04:38:39.443Z,75.83
2018-04-01T04:41:06.490Z,76.46
2018-04-01T04:43:33.538Z,76.99
2018-04-01T04:46:00.666Z,77.69
2018-04-01T04:48:27.707Z,77.04
2018-04-01T04:50:54.758Z,76.36
2018-04-01T04:53:21.827Z,75.92
2018-04-01T04:55:48.916Z,76.82
2018-04-01T04:58:16.085Z,76.04
2018-04-01T05:00:43.143Z,76.73
2018-04-01T05:03:10.206Z,75.70
2018-04-01T05:05:37.363Z,77.24
2018-04-01T05:08:04.412Z,77.66
2018-04-01T05:10:31.461Z,75.57
2018-04-01T05:12:58.559Z,76.11
2018-04-01T05:15:25.607Z,76.93
2018-04-01T05:17:52.663Z,77.47
2018-04-01T05:20:19.811Z,75.96
2018-04-01T05:22:46.870Z,74.92
2018-04-01T05:25:13.950Z,73.93
2018-04-01T05:27:41.014Z,71.99
2018-04-01T05:30:08.104Z,71.78
2018-04-01T05:32:35.155Z,69.27
2018-04-01T05:35:02.206Z,69.86
2018-04-01T05:37:29.287Z,68.69
2018-04-01T05:39:56.354Z,68.36
2018-04-01T05:42:23.411Z,68.44
2018-04-01T05:44:50.536Z,67.89
2018-04-01T05:47:17.578Z,66.84
2018-04-01T05:49:44.679Z,67.03
2018-04-01T05:52:11.766Z,65.35
2018-04-01T05:54:38.886Z,63.83
2018-04-01T05:57:06.045Z,61.33
2018-04-01T05:59:33.143Z,62.74
2018-04-01T06:02:00.195Z,62.51
2018-04-01T06:04:27.294Z,61.94
2018-04-01T06:06:54.362Z,61.79
2018-04-01T06:09:21.542Z,63.46
2018-04-01T06:11:48.694Z,61.58
2018-04-01T06:14:15.746Z,60.47
2018-04-01T06:16:42.831Z,60.72
2018-04-01T06:19:09.888Z,61.70
2018-04-01T06:21:36.974Z,64.16
2018-04-01T06:24:04.087Z,64.73
2018-04-01T06:26:31.146Z,67.29
2018-04-01T06:28:58.208Z,69.41
2018-04-01T06:31:25.315Z,63.98
2018-04-01T06:33:52.362Z,61.08
2018-04-01T06:36:19.451Z,63.01
2018-04-01T06:38:46.542Z,64.30
2018-04-01T06:41:13.587Z,66.43
2018-04-01T06:43:40.639Z,66.04
2018-04-01T06:46:07.755Z,66.24
2018-04-01T06:48:34.806Z,67.21
2018-04-01T06:51:01.851Z,65.56
2018-04-01T06:53:29.078Z,66.22
2018-04-01T06:55:56.159Z,65.38
2018-04-01T06:58:23.220Z,67.76
2018-04-01T07:00:50.296Z,67.88
2018-04-01T07:03:17.330Z,67.33
2018-04-01T07:05:44.382Z,68.59
2018-04-01T07:08:11.463Z,65.40
2018-04-01T07:10:38.507Z,66.31
2018-04-01T07:13:05.550Z,65.15
2018-04-01T07:15:32.643Z,64.45
2018-04-01T07:17:59.714Z,66.44
2018-04-01T07:20:26.843Z,69.42
2018-04-01T07:22:53.887Z,69.61
2018-04-01T07:25:20.930Z,68.61
2018-04-01T07:27:48.019Z,69.48
2018-04-01T07:30:15.067Z,71.52
2018-04-01T07:32:42.113Z,71.97
2018-04-01T07:35:09.207Z,73.18
2018-04-01T07:37:36.255Z,72.08
2018-04-01T07:40:03.303Z,74.30
2018-04-01T07:42:30.364Z,74.26
2018-04-01T07:44:57.420Z,72.79
2018-04-01T07:47:24.503Z,73.70
2018-04-01T07:49:51.571Z,75.34
2018-04-01T07:52:18.623Z,76.55
2018-04-01T07:54:45.683Z,77.55
2018-04-01T07:57:12.735Z,78.38
2018-04-01T07:59:39.814Z,78.28
2018-04-01T08:02:06.863Z,78.62
2018-04-01T08:04:33.918Z,77.84
2018-04-01T08:07:01.010Z,79.43
2018-04-01T08:09:28.059Z,76.88
2018-04-01T08:11:55.139Z,75.95
2018-04-01T08:14:22.187Z,75.92
2018-04-01T08:16:49.240Z,72.87
2018-04-01T08:19:16.347Z,69.72
2018-04-01T08:21:43.415Z,66.73
2018-04-01T08:24:10.457Z,66.43
2018-04-01T08:26:37.610Z,63.42
2018-04-01T08:29:04.665Z,61.95
2018-04-01T08:31:31.722Z,58.19
2018-04-01T08:33:58.808Z,57.67
2018-04-01T08:36:25.871Z,55.52
2018-04-01T08:38:52.930Z,56.05
2018-04-01T08:41:20.012Z,53.32
2018-04-01T08:43:47.091Z,51.97
2018-04-01T08:46:14.143Z,53.26
2018-04-01T08:48:41.191Z,51.13
2018-04-01T08:51:08.343Z,50.23
2018-04-01T08:53:35.433Z,50.64
2018-04-01T08:56:02.478Z,46.52
2018-04-01T08:58:29.588Z,46.52
2018-04-01T09:00:56.648Z,46.30
2018-04-01T09:03:23.731Z,46.75
2018-04-01T09:05:50.778Z,42.52
2018-04-01T09:08:17.825Z,45.13
2018-04-01T09:10:44.898Z,39.09
2018-04-01T09:13:11.942Z,38.30
2018-04-01T09:15:39.015Z,37.96
2018-04-01T09:18:06.099Z,36.75
2018-04-01T09:20:33.149Z,37.08
2018-04-01T09:23:00.191Z,38.87
2018-04-01T09:25:27.297Z,35.81
2018-04-01T09:27:54.392Z,37.97
2018-04-01T09:30:21.460Z,39.28
2018-04-01T09:32:48.606Z,35.90
2018-04-01T09:35:15.699Z,29.72
2018-04-01T09:37:42.767Z,30.81
2018-04-01T09:40:09.858Z,30.47
2018-04-01T09:42:36.906Z,28.91
2018-04-01T09:45:04.008Z,28.35
2018-04-01T09:47:31.064Z,28.40
2018-04-01T09:49:58.122Z,29.81
2018-04-01T09:52:25.237Z,30.51
2018-04-01T09:54:52.312Z,27.83
2018-04-01T09:57:19.366Z,24.50
2018-04-01T09:59:46.443Z,21.44
2018-04-01T10:02:14.122Z,23.70
2018-04-01T10:04:41.715Z,23.85
2018-04-01T10:07:09.355Z,22.70
2018-04-01T10:09:36.955Z,20.99
2018-04-01T10:12:04.539Z,20.71
2018-04-01T10:14:32.174Z,20.37
2018-04-01T10:16:59.760Z,21.41
2018-04-01T10:19:27.382Z,21.24
2018-04-01T10:21:54.968Z,22.42
2018-04-01T10:24:22.578Z,22.19
2018-04-01T10:26:50.199Z,22.34
2018-04-01T10:29:17.789Z,21.27
2018-04-01T10:31:45.383Z,21.98
2018-04-01T10:34:12.971Z,20.64
2018-04-01T10:36:40.570Z,20.78
2018-04-01T10:39:08.203Z,20.70
2018-04-01T10:41:35.790Z,18.42
2018-04-01T10:44:03.410Z,18.55
2018-04-01T10:46:31.090Z,19.72
2018-04-01T10:48:58.672Z,20.92
2018-04-01T10:51:26.574Z,21.19
2018-04-01T10:53:56.571Z,24.02
2018-04-01T10:56:23.638Z,22.87
2018-04-01T10:58:50.731Z,21.33
2018-04-01T11:01:17.783Z,19.42
2018-04-01T11:03:44.827Z,18.76
2018-04-01T11:06:11.910Z,18.85
2018-04-01T11:08:38.962Z,19.43
2018-04-01T11:11:06.011Z,18.61
2018-04-01T11:13:33.058Z,19.28
2018-04-01T11:16:00.119Z,18.94
2018-04-01T11:18:27.246Z,18.50
2018-04-01T11:20:54.295Z,18.12
2018-04-01T11:23:21.356Z,17.64
2018-04-01T11:25:48.434Z,18.54
2018-04-01T11:28:15.475Z,18.34
2018-04-01T11:30:42.843Z,18.58
2018-04-01T11:33:09.891Z,15.50
2018-04-01T11:35:36.935Z,16.49
2018-04-01T11:38:04.043Z,17.90
2018-04-01T11:40:31.079Z,16.64
2018-04-01T11:42:58.114Z,14.80
2018-04-01T11:45:25.204Z,14.20
2018-04-01T11:47:52.243Z,14.87
2018-04-01T11:50:19.283Z,15.91
2018-04-01T11:52:46.394Z,15.81
2018-04-01T11:55:13.487Z,15.14
2018-04-01T11:57:40.527Z,15.47
2018-04-01T12:00:07.624Z,15.84
2018-04-01T12:02:34.699Z,16.92
2018-04-01T12:05:01.781Z,15.86
2018-04-01T12:07:28.843Z,17.11
2018-04-01T12:09:55.895Z,16.89
2018-04-01T12:12:22.946Z,16.35
2018-04-01T12:14:50.027Z,17.20
2018-04-01T12:17:17.126Z,16.70
2018-04-01T12:19:44.218Z,16.77
2018-04-01T12:22:11.790Z,14.82
2018-04-01T12:24:38.858Z,15.08
2018-04-01T12:27:05.902Z,15.21
2018-04-01T12:29:32.979Z,16.29
2018-04-01T12:32:00.051Z,13.96
2018-04-01T12:34:27.142Z,14.13
2018-04-01T12:36:54.193Z,14.62
2018-04-01T12:39:21.240Z,15.23
2018-04-01T12:41:48.375Z,15.31
2018-04-01T12:44:15.438Z,16.00
2018-04-01T12:46:42.487Z,15.09
2018-04-01T12:49:09.538Z,16.01
2018-04-01T12:51:36.599Z,15.35
2018-04-01T12:54:03.696Z,15.13
2018-04-01T12:56:30.753Z,15.74
2018-04-01T12:58:57.807Z,16.14
2018-04-01T13:01:24.863Z,15.77
2018-04-01T13:03:51.935Z,16.56
2018-04-01T13:06:19.025Z,16.44
2018-04-01T13:08:46.068Z,17.80
2018-04-01T13:11:13.120Z,18.25
2018-04-01T13:13:40.190Z,17.29
2018-04-01T13:16:07.265Z,17.12
2018-04-01T13:18:34.346Z,17.35
2018-04-01T13:21:03.148Z,18.18
2018-04-01T13:23:30.218Z,18.81
2018-04-01T13:25:57.330Z,19.37
2018-04-01T13:28:24.374Z,19.52
2018-04-01T13:30:51.430Z,20.22
2018-04-01T13:33:18.529Z,21.67
2018-04-01T13:35:45.625Z,21.94
2018-04-01T13:38:12.703Z,23.54
2018-04-01T13:40:39.782Z,28.24
2018-04-01T13:43:06.831Z,29.34
2018-04-01T13:45:33.900Z,28.86
2018-04-01T13:48:01.008Z,37.68
2018-04-01T13:50:28.123Z,43.12
2018-04-01T13:52:55.169Z,47.74
2018-04-01T13:55:22.254Z,47.26
2018-04-01T13:57:50.243Z,49.03
2018-04-01T14:00:17.294Z,46.57
2018-04-01T14:02:44.431Z,48.78
2018-04-01T14:05:12.006Z,49.04
2018-04-01T14:07:39.052Z,49.10
2018-04-01T14:10:06.152Z,50.16
2018-04-01T14:12:33.204Z,50.57
2018-04-01T14:15:00.291Z,48.42
2018-04-01T14:17:27.368Z,48.51
2018-04-01T14:19:54.435Z,48.82
2018-04-01T14:22:21.535Z,48.14
2018-04-01T14:24:48.591Z,46.56
2018-04-01T14:27:15.632Z,46.93
2018-04-01T14:29:42.727Z,45.54
2018-04-01T14:32:09.819Z,46.80
2018-04-01T14:34:36.869Z,45.40
2018-04-01T14:37:03.965Z,46.24
2018-04-01T14:39:31.043Z,46.75
2018-04-01T14:41:58.103Z,47.21
2018-04-01T14:44:25.158Z,46.93
2018-04-01T14:46:52.226Z,48.46
2018-04-01T14:49:19.319Z,46.00
2018-04-01T14:51:48.960Z,45.64
2018-04-01T14:54:16.003Z,46.67
2018-04-01T14:56:43.384Z,46.15
2018-04-01T14:59:10.445Z,46.14
2018-04-01T15:01:37.496Z,45.21
2018-04-01T15:04:04.591Z,46.35
2018-04-01T15:06:31.661Z,45.71
2018-04-01T15:08:58.720Z,45.84
2018-04-01T15:11:25.774Z,44.97
2018-04-01T15:13:52.830Z,43.73
2018-04-01T15:16:19.975Z,44.13
2018-04-01T15:18:47.022Z,44.15
2018-04-01T15:21:14.110Z,44.46
2018-04-01T15:23:41.208Z,44.23
2018-04-01T15:26:08.260Z,49.04
2018-04-01T15:28:35.323Z,55.85
2018-04-01T15:31:05.474Z,57.16
2018-04-01T15:33:32.657Z,59.19
2018-04-01T15:35:59.731Z,57.72
2018-04-01T15:38:26.811Z,58.04
2018-04-01T15:40:53.939Z,56.50
2018-04-01T15:43:21.036Z,55.96
2018-04-01T15:45:48.119Z,55.22
2018-04-01T15:48:15.172Z,56.40
2018-04-01T15:50:42.293Z,56.00
2018-04-01T15:53:09.413Z,55.57
2018-04-01T15:55:36.474Z,52.25
2018-04-01T15:58:03.564Z,50.83
2018-04-01T16:00:30.611Z,53.69
2018-04-01T16:02:57.687Z,57.21
2018-04-01T16:05:24.782Z,57.44
2018-04-01T16:07:51.831Z,57.52
2018-04-01T16:10:18.929Z,56.54
2018-04-01T16:12:46.013Z,55.26
2018-04-01T16:15:13.060Z,57.28
2018-04-01T16:17:40.115Z,57.41
2018-04-01T16:20:07.219Z,60.76
2018-04-01T16:22:34.346Z,61.87
2018-04-01T16:25:01.403Z,59.81
2018-04-01T16:27:28.462Z,57.01
2018-04-01T16:29:55.555Z,59.06
2018-04-01T16:32:22.699Z,59.29
2018-04-01T16:34:49.753Z,57.19
2018-04-01T16:37:16.807Z,56.74
2018-04-01T16:39:43.899Z,57.46
2018-04-01T16:42:11.386Z,57.21
2018-04-01T16:44:38.663Z,57.14
2018-04-01T16:47:05.763Z,58.23
2018-04-01T16:49:32.859Z,58.78
2018-04-01T16:51:59.967Z,58.51
2018-04-01T16:54:27.111Z,57.68
2018-04-01T16:56:54.166Z,58.57
2018-04-01T16:59:21.231Z,57.31
2018-04-01T17:01:48.315Z,56.05
2018-04-01T17:04:15.376Z,56.33
2018-04-01T17:06:42.502Z,56.00
2018-04-01T17:09:09.562Z,55.37
2018-04-01T17:11:36.643Z,53.62
2018-04-01T17:14:03.745Z,53.73
2018-04-01T17:16:30.938Z,54.72
2018-04-01T17:18:58.025Z,56.56
2018-04-01T17:21:25.163Z,58.27
2018-04-01T17:23:52.197Z,57.97
2018-04-01T17:26:19.375Z,58.67
2018-04-01T17:28:46.431Z,58.29
2018-04-01T17:31:13.523Z,57.51
2018-04-01T17:33:40.664Z,56.95
2018-04-01T17:36:07.727Z,56.53
2018-04-01T17:38:34.788Z,56.80
2018-04-01T17:41:02.783Z,56.86
2018-04-01T17:43:29.837Z,57.53
2018-04-01T17:45:56.898Z,57.72
2018-04-01T17:48:23.981Z,57.40
2018-04-01T17:50:51.031Z,57.20
2018-04-01T17:53:18.132Z,57.47
2018-04-01T17:55:45.251Z,57.12
2018-04-01T17:58:12.372Z,56.45
2018-04-01T18:00:39.490Z,56.11
2018-04-01T18:03:06.548Z,55.83
2018-04-01T18:05:33.607Z,55.87
2018-04-01T18:08:00.754Z,55.86
2018-04-01T18:10:27.806Z,55.97
2018-04-01T18:12:54.971Z,56.16
2018-04-01T18:15:22.042Z,55.72
2018-04-01T18:17:49.104Z,55.66
2018-04-01T18:20:16.155Z,56.25
2018-04-01T18:22:43.223Z,55.77
2018-04-01T18:25:10.431Z,55.46
2018-04-01T18:27:37.482Z,55.43
2018-04-01T18:30:04.570Z,55.25
2018-04-01T18:32:31.692Z,55.34
2018-04-01T18:34:58.774Z,55.44
2018-04-01T18:37:25.944Z,55.19
2018-04-01T18:39:53.038Z,55.25
2018-04-01T18:42:20.121Z,54.77
2018-04-01T18:44:47.175Z,54.84
2018-04-01T18:47:14.218Z,54.53
2018-04-01T18:49:41.271Z,54.37
2018-04-01T18:52:08.350Z,54.28
2018-04-01T18:54:35.407Z,54.05
2018-04-01T18:57:02.512Z,53.96
2018-04-01T18:59:29.603Z,53.85
2018-04-01T19:01:56.655Z,54.37
2018-04-01T19:04:23.711Z,54.81
2018-04-01T19:06:50.810Z,54.72
2018-04-01T19:09:17.867Z,55.20
2018-04-01T19:11:44.910Z,55.93
2018-04-01T19:14:11.961Z,56.14
2018-04-01T19:16:51.348Z,56.39
2018-04-01T19:19:18.963Z,56.78
2018-04-01T19:21:46.563Z,57.55
2018-04-01T19:24:14.140Z,56.82
2018-04-01T19:26:41.776Z,56.64
2018-04-01T19:29:09.394Z,57.17
2018-04-01T19:31:37.004Z,56.17
2018-04-01T19:34:04.626Z,56.65
2018-04-01T19:36:32.215Z,55.67
2018-04-01T19:38:59.802Z,54.88
2018-04-01T19:41:27.434Z,55.46
2018-04-01T19:43:55.015Z,54.57
2018-04-01T19:46:22.611Z,55.60
2018-04-01T19:48:50.758Z,55.66
2018-04-01T19:51:18.342Z,55.39
2018-04-01T19:53:45.942Z,56.31
2018-04-01T19:56:13.527Z,56.61
2018-04-01T19:58:41.112Z,57.06
2018-04-01T20:01:08.731Z,56.91
2018-04-01T20:03:36.406Z,57.43
2018-04-01T20:06:04.002Z,57.58
2018-04-01T20:08:31.736Z,57.81
2018-04-01T20:10:59.442Z,57.61
2018-04-01T20:13:27.051Z,57.62
2018-04-01T20:15:54.662Z,57.17
2018-04-01T20:18:22.266Z,57.03
2018-04-01T20:20:49.867Z,56.87
2018-04-01T20:23:17.492Z,56.62
2018-04-01T20:25:45.071Z,56.63
2018-04-01T20:28:12.661Z,57.05
2018-04-01T20:30:40.263Z,57.52
2018-04-01T20:33:07.852Z,57.59
2018-04-01T20:35:35.483Z,57.70
2018-04-01T20:38:03.070Z,57.83
2018-04-01T20:40:30.678Z,58.20
2018-04-01T20:42:58.307Z,57.59
2018-04-01T20:45:25.894Z,57.98
2018-04-01T20:47:53.485Z,57.76
2018-04-01T20:50:21.175Z,58.21
2018-04-01T20:52:48.791Z,58.19
2018-04-01T20:55:16.391Z,58.13
2018-04-01T20:57:43.979Z,58.15
2018-04-01T21:00:11.608Z,58.02
2018-04-01T21:02:39.247Z,57.79
2018-04-01T21:05:06.836Z,57.52
2018-04-01T21:07:34.455Z,57.49
2018-04-01T21:10:02.083Z,58.01
2018-04-01T21:12:29.704Z,58.10
2018-04-01T21:14:57.305Z,57.88
2018-04-01T21:17:24.930Z,57.93
2018-04-01T21:19:52.506Z,58.16
2018-04-01T21:22:20.083Z,57.81
2018-04-01T21:24:47.689Z,58.05
2018-04-01T21:27:15.283Z,58.01
2018-04-01T21:29:42.896Z,57.90
2018-04-01T21:32:10.517Z,57.51
2018-04-01T21:34:38.096Z,57.32
2018-04-01T21:37:05.805Z,57.57
2018-04-01T21:39:33.417Z,57.57
2018-04-01T21:42:01.003Z,57.40
2018-04-01T21:44:28.787Z,57.57
2018-04-01T21:46:56.372Z,57.93
2018-04-01T21:49:23.970Z,57.85
2018-04-01T21:51:51.602Z,57.16
2018-04-01T21:54:19.270Z,57.04
2018-04-01T21:56:46.863Z,57.51
2018-04-01T21:59:14.527Z,57.79
2018-04-01T22:01:42.153Z,57.52
2018-04-01T22:04:09.778Z,57.29
2018-04-01T22:06:37.370Z,57.70
2018-04-01T22:09:05.819Z,58.08
2018-04-01T22:11:33.403Z,57.95
2018-04-01T22:14:01.039Z,57.13
2018-04-01T22:16:28.631Z,57.25
2018-04-01T22:18:56.228Z,57.32
2018-04-01T22:21:23.868Z,57.39
2018-04-01T22:23:51.455Z,57.51
2018-04-01T22:26:19.094Z,57.39
2018-04-01T22:28:46.721Z,57.73
2018-04-01T22:31:14.347Z,57.67
2018-04-01T22:33:41.947Z,57.28
2018-04-01T22:36:09.599Z,57.80
2018-04-01T22:38:37.235Z,57.93
2018-04-01T22:41:04.863Z,57.83
2018-04-01T22:43:32.514Z,57.64
2018-04-01T22:46:00.242Z,58.12
2018-04-01T22:48:27.838Z,57.91
2018-04-01T22:50:55.428Z,57.95
2018-04-01T22:53:23.019Z,58.20
2018-04-01T22:55:50.648Z,58.20
2018-04-01T22:58:18.310Z,58.39
2018-04-01T23:00:45.957Z,59.31
2018-04-01T23:03:13.607Z,58.85
2018-04-01T23:05:41.500Z,58.89
2018-04-01T23:08:09.143Z,58.77
2018-04-01T23:10:36.787Z,58.42
2018-04-01T23:13:04.391Z,57.70
2018-04-01T23:15:31.979Z,57.67
2018-04-01T23:17:59.627Z,57.77
2018-04-01T23:20:27.239Z,57.35
2018-04-01T23:22:54.838Z,57.99
2018-04-01T23:25:22.442Z,58.04
2018-04-01T23:27:50.053Z,57.98
2018-04-01T23:30:17.647Z,58.39
2018-04-01T23:32:45.230Z,58.52
2018-04-01T23:35:12.846Z,57.65
2018-04-01T23:37:40.419Z,57.62
2018-04-01T23:40:07.995Z,57.35
2018-04-01T23:42:35.628Z,56.65
2018-04-01T23:45:03.215Z,55.94
2018-04-01T23:47:30.798Z,56.26
2018-04-01T23:49:58.461Z,55.50
2018-04-01T23:52:26.034Z,54.88
2018-04-01T23:54:53.706Z,54.29
2018-04-01T23:57:21.331Z,53.90
2018-04-01T23:59:48.912Z,53.93
